sensor_id;sensor_type;location;lat;lon;timestamp;pressure;altitude;pressure_sealevel;temperature;humidity
37648;BME280;23490;53.656;10.076;2023-04-19T00:00:18;99393.22;;;-145.95;91.04
37648;BME280;23490;53.656;10.076;2023-04-19T00:02:44;99323.00;;;-145.95;90.97
37648;BME280;23490;53.656;10.076;2023-04-19T00:05:09;99372.56;;;-145.95;90.21
37648;BME280;23490;53.656;10.076;2023-04-19T00:07:37;99351.91;;;-145.95;90.19
37648;BME280;23490;53.656;10.076;2023-04-19T00:10:03;99360.19;;;-145.95;89.55
37648;BME280;23490;53.656;10.076;2023-04-19T00:12:29;99393.22;;;-145.95;90.27
37648;BME280;23490;53.656;10.076;2023-04-19T00:14:54;99370.50;;;-145.95;89.53
37648;BME280;23490;53.656;10.076;2023-04-19T00:17:19;99422.13;;;-145.95;90.93
37648;BME280;23490;53.656;10.076;2023-04-19T00:19:45;99376.69;;;-145.95;90.24
37648;BME280;23490;53.656;10.076;2023-04-19T00:22:11;99413.88;;;-145.95;90.25
37648;BME280;23490;53.656;10.076;2023-04-19T00:24:36;99403.56;;;-145.95;90.00
37648;BME280;23490;53.656;10.076;2023-04-19T00:27:01;99374.63;;;-145.95;89.17
37648;BME280;23490;53.656;10.076;2023-04-19T00:29:27;99364.31;;;-145.95;88.31
37648;BME280;23490;53.656;10.076;2023-04-19T00:31:53;99384.97;;;-145.95;88.48
37648;BME280;23490;53.656;10.076;2023-04-19T00:34:18;99387.03;;;-145.95;88.39
37648;BME280;23490;53.656;10.076;2023-04-19T00:36:43;99401.50;;;-145.95;88.26
37648;BME280;23490;53.656;10.076;2023-04-19T00:39:09;99372.56;;;-145.95;87.61
37648;BME280;23490;53.656;10.076;2023-04-19T00:41:34;99418.00;;;-145.95;87.28
37648;BME280;23490;53.656;10.076;2023-04-19T00:44:00;99387.03;;;-145.95;87.63
37648;BME280;23490;53.656;10.076;2023-04-19T00:46:25;99438.66;;;-145.95;88.16
37648;BME280;23490;53.656;10.076;2023-04-19T00:48:51;99418.00;;;-145.95;88.34
37648;BME280;23490;53.656;10.076;2023-04-19T00:51:18;99430.41;;;-145.95;87.89
37648;BME280;23490;53.656;10.076;2023-04-19T00:53:44;99407.69;;;-145.95;87.21
37648;BME280;23490;53.656;10.076;2023-04-19T00:56:10;99393.22;;;-145.95;87.21
37648;BME280;23490;53.656;10.076;2023-04-19T00:58:37;99397.34;;;-145.95;86.95
37648;BME280;23490;53.656;10.076;2023-04-19T01:01:03;99397.34;;;-145.95;87.89
37648;BME280;23490;53.656;10.076;2023-04-19T01:03:29;99428.34;;;-145.95;87.53
37648;BME280;23490;53.656;10.076;2023-04-19T01:05:55;99374.63;;;-145.95;86.75
37648;BME280;23490;53.656;10.076;2023-04-19T01:08:21;99384.97;;;-145.95;87.20
37648;BME280;23490;53.656;10.076;2023-04-19T01:10:46;99397.34;;;-145.95;87.76
37648;BME280;23490;53.656;10.076;2023-04-19T01:13:11;99409.75;;;-145.95;88.06
37648;BME280;23490;53.656;10.076;2023-04-19T01:15:37;99405.63;;;-145.95;88.36
37648;BME280;23490;53.656;10.076;2023-04-19T01:18:03;99409.75;;;-145.95;87.73
37648;BME280;23490;53.656;10.076;2023-04-19T01:20:28;99422.13;;;-145.95;88.94
37648;BME280;23490;53.656;10.076;2023-04-19T01:22:54;99411.81;;;-145.95;88.28
37648;BME280;23490;53.656;10.076;2023-04-19T01:25:19;99401.50;;;-145.95;88.05
37648;BME280;23490;53.656;10.076;2023-04-19T01:27:45;99405.63;;;-145.95;87.74
37648;BME280;23490;53.656;10.076;2023-04-19T01:30:10;99389.09;;;-145.95;88.43
37648;BME280;23490;53.656;10.076;2023-04-19T01:32:36;99418.00;;;-145.95;88.23
37648;BME280;23490;53.656;10.076;2023-04-19T01:35:01;99409.75;;;-145.95;87.86
37648;BME280;23490;53.656;10.076;2023-04-19T01:37:26;99418.00;;;-145.95;87.21
37648;BME280;23490;53.656;10.076;2023-04-19T01:39:52;99413.88;;;-145.95;87.01
37648;BME280;23490;53.656;10.076;2023-04-19T01:42:17;99401.50;;;-145.95;88.71
37648;BME280;23490;53.656;10.076;2023-04-19T01:44:43;99420.06;;;-145.95;88.64
37648;BME280;23490;53.656;10.076;2023-04-19T01:47:09;99401.50;;;-145.95;87.75
37648;BME280;23490;53.656;10.076;2023-04-19T01:49:34;99413.88;;;-145.95;87.71
37648;BME280;23490;53.656;10.076;2023-04-19T01:51:59;99424.19;;;-145.95;88.18
37648;BME280;23490;53.656;10.076;2023-04-19T01:54:25;99389.09;;;-145.95;88.04
37648;BME280;23490;53.656;10.076;2023-04-19T01:56:51;99430.41;;;-145.95;88.86
37648;BME280;23490;53.656;10.076;2023-04-19T01:59:16;99389.09;;;-145.95;88.88
37648;BME280;23490;53.656;10.076;2023-04-19T02:01:41;99438.66;;;-145.95;89.02
37648;BME280;23490;53.656;10.076;2023-04-19T02:04:08;99409.75;;;-145.95;89.29
37648;BME280;23490;53.656;10.076;2023-04-19T02:06:33;99428.34;;;-145.95;88.71
37648;BME280;23490;53.656;10.076;2023-04-19T02:08:58;99382.91;;;-145.95;88.48
37648;BME280;23490;53.656;10.076;2023-04-19T02:11:24;99428.34;;;-145.95;89.20
37648;BME280;23490;53.656;10.076;2023-04-19T02:13:49;99434.53;;;-145.95;89.16
37648;BME280;23490;53.656;10.076;2023-04-19T02:16:15;99453.13;;;-145.95;89.42
37648;BME280;23490;53.656;10.076;2023-04-19T02:18:40;99430.41;;;-145.95;88.89
37648;BME280;23490;53.656;10.076;2023-04-19T02:21:06;99455.19;;;-145.95;89.81
37648;BME280;23490;53.656;10.076;2023-04-19T02:23:32;99459.31;;;-145.95;89.84
37648;BME280;23490;53.656;10.076;2023-04-19T02:25:57;99471.69;;;-145.95;89.81
37648;BME280;23490;53.656;10.076;2023-04-19T02:28:23;99465.50;;;-145.95;90.14
37648;BME280;23490;53.656;10.076;2023-04-19T02:30:48;99502.69;;;-145.95;90.39
37648;BME280;23490;53.656;10.076;2023-04-19T02:33:14;99471.69;;;-145.95;89.98
37648;BME280;23490;53.656;10.076;2023-04-19T02:35:40;99432.47;;;-145.95;89.64
37648;BME280;23490;53.656;10.076;2023-04-19T02:38:05;99467.56;;;-145.95;89.66
37648;BME280;23490;53.656;10.076;2023-04-19T02:40:32;99479.97;;;-145.95;89.57
37648;BME280;23490;53.656;10.076;2023-04-19T02:42:58;99463.44;;;-145.95;90.14
37648;BME280;23490;53.656;10.076;2023-04-19T02:45:23;99484.09;;;-145.95;89.54
37648;BME280;23490;53.656;10.076;2023-04-19T02:47:48;99438.66;;;-145.95;89.61
37648;BME280;23490;53.656;10.076;2023-04-19T02:50:15;99467.56;;;-145.95;89.56
37648;BME280;23490;53.656;10.076;2023-04-19T02:52:41;99459.31;;;-145.95;90.19
37648;BME280;23490;53.656;10.076;2023-04-19T02:55:06;99496.47;;;-145.95;90.33
37648;BME280;23490;53.656;10.076;2023-04-19T02:57:32;99432.47;;;-145.95;89.56
37648;BME280;23490;53.656;10.076;2023-04-19T02:59:57;99467.56;;;-145.95;88.99
37648;BME280;23490;53.656;10.076;2023-04-19T03:02:26;99461.38;;;-145.95;89.69
37648;BME280;23490;53.656;10.076;2023-04-19T03:04:51;99467.56;;;-145.95;89.71
37648;BME280;23490;53.656;10.076;2023-04-19T03:07:18;99492.34;;;-145.95;88.81
37648;BME280;23490;53.656;10.076;2023-04-19T03:09:43;99484.09;;;-145.95;89.39
37648;BME280;23490;53.656;10.076;2023-04-19T03:12:08;99479.97;;;-145.95;89.14
37648;BME280;23490;53.656;10.076;2023-04-19T03:14:33;99475.84;;;-145.95;89.14
37648;BME280;23490;53.656;10.076;2023-04-19T03:16:59;99434.53;;;-145.95;88.39
37648;BME280;23490;53.656;10.076;2023-04-19T03:19:24;99496.47;;;-145.95;88.99
37648;BME280;23490;53.656;10.076;2023-04-19T03:21:50;99467.56;;;-145.95;88.88
37648;BME280;23490;53.656;10.076;2023-04-19T03:24:25;99457.25;;;-145.95;88.53
37648;BME280;23490;53.656;10.076;2023-04-19T03:26:51;99479.97;;;-145.95;88.58
37648;BME280;23490;53.656;10.076;2023-04-19T03:29:16;99475.84;;;-145.95;88.71
37648;BME280;23490;53.656;10.076;2023-04-19T03:31:41;99484.09;;;-145.95;89.29
37648;BME280;23490;53.656;10.076;2023-04-19T03:34:07;99496.47;;;-145.95;89.64
37648;BME280;23490;53.656;10.076;2023-04-19T03:36:32;99541.91;;;-145.95;89.84
37648;BME280;23490;53.656;10.076;2023-04-19T03:38:57;99506.81;;;-145.95;89.89
37648;BME280;23490;53.656;10.076;2023-04-19T03:41:24;99496.47;;;-145.95;90.46
37648;BME280;23490;53.656;10.076;2023-04-19T03:43:51;99506.81;;;-145.95;90.33
37648;BME280;23490;53.656;10.076;2023-04-19T03:46:16;99515.06;;;-145.95;91.12
37648;BME280;23490;53.656;10.076;2023-04-19T03:48:41;99546.06;;;-145.95;92.03
37648;BME280;23490;53.656;10.076;2023-04-19T03:51:07;99508.88;;;-145.95;91.00
37648;BME280;23490;53.656;10.076;2023-04-19T03:53:32;99521.28;;;-145.95;90.88
37648;BME280;23490;53.656;10.076;2023-04-19T03:55:57;99496.47;;;-145.95;90.02
37648;BME280;23490;53.656;10.076;2023-04-19T03:58:23;99513.00;;;-145.95;90.01
37648;BME280;23490;53.656;10.076;2023-04-19T04:00:48;99500.63;;;-145.95;89.99
37648;BME280;23490;53.656;10.076;2023-04-19T04:03:13;99508.88;;;-145.95;90.27
37648;BME280;23490;53.656;10.076;2023-04-19T04:05:39;99465.50;;;-145.95;90.15
37648;BME280;23490;53.656;10.076;2023-04-19T04:08:04;99531.59;;;-145.95;89.80
37648;BME280;23490;53.656;10.076;2023-04-19T04:10:30;99517.13;;;-145.95;90.32
37648;BME280;23490;53.656;10.076;2023-04-19T04:12:55;99556.38;;;-145.95;91.01
37648;BME280;23490;53.656;10.076;2023-04-19T04:15:21;99546.06;;;-145.95;91.08
37648;BME280;23490;53.656;10.076;2023-04-19T04:17:46;99521.28;;;-145.95;91.75
37648;BME280;23490;53.656;10.076;2023-04-19T04:20:12;99502.69;;;-145.95;92.93
37648;BME280;23490;53.656;10.076;2023-04-19T04:22:41;99537.78;;;-145.95;92.70
37648;BME280;23490;53.656;10.076;2023-04-19T04:25:10;99529.53;;;-145.95;91.89
37648;BME280;23490;53.656;10.076;2023-04-19T04:27:37;99525.41;;;-145.95;90.74
37648;BME280;23490;53.656;10.076;2023-04-19T04:30:04;99525.41;;;-145.95;90.67
37648;BME280;23490;53.656;10.076;2023-04-19T04:32:30;99504.75;;;-145.95;90.33
37648;BME280;23490;53.656;10.076;2023-04-19T04:35:05;99535.72;;;-145.95;90.02
37648;BME280;23490;53.656;10.076;2023-04-19T04:37:31;99529.53;;;-145.95;89.69
37648;BME280;23490;53.656;10.076;2023-04-19T04:39:58;99537.78;;;-145.95;88.63
37648;BME280;23490;53.656;10.076;2023-04-19T04:42:24;99517.13;;;-145.95;88.74
37648;BME280;23490;53.656;10.076;2023-04-19T04:44:50;99502.69;;;-145.95;88.27
37648;BME280;23490;53.656;10.076;2023-04-19T04:47:16;99494.41;;;-145.95;88.54
37648;BME280;23490;53.656;10.076;2023-04-19T04:49:41;99479.97;;;-145.95;87.70
37648;BME280;23490;53.656;10.076;2023-04-19T04:52:07;99488.22;;;-145.95;86.81
37648;BME280;23490;53.656;10.076;2023-04-19T04:54:33;99508.88;;;-145.95;87.00
37648;BME280;23490;53.656;10.076;2023-04-19T04:56:58;99471.69;;;-145.95;86.23
37648;BME280;23490;53.656;10.076;2023-04-19T04:59:24;99440.72;;;-145.95;85.97
37648;BME280;23490;53.656;10.076;2023-04-19T05:01:50;99479.97;;;-145.95;85.85
37648;BME280;23490;53.656;10.076;2023-04-19T05:04:16;99446.91;;;-145.95;85.23
37648;BME280;23490;53.656;10.076;2023-04-19T05:06:41;99506.81;;;-145.95;85.28
37648;BME280;23490;53.656;10.076;2023-04-19T05:09:08;99475.84;;;-145.95;84.76
37648;BME280;23490;53.656;10.076;2023-04-19T05:11:34;99461.38;;;-145.95;84.57
37648;BME280;23490;53.656;10.076;2023-04-19T05:14:00;99459.31;;;-145.95;84.06
37648;BME280;23490;53.656;10.076;2023-04-19T05:16:26;99453.13;;;-145.95;83.76
37648;BME280;23490;53.656;10.076;2023-04-19T05:18:51;99459.31;;;-145.95;82.63
37648;BME280;23490;53.656;10.076;2023-04-19T05:21:17;99448.97;;;-145.95;82.51
37648;BME280;23490;53.656;10.076;2023-04-19T05:23:42;99463.44;;;-145.95;81.67
37648;BME280;23490;53.656;10.076;2023-04-19T05:26:07;99455.19;;;-145.95;81.08
37648;BME280;23490;53.656;10.076;2023-04-19T05:28:37;99401.50;;;-145.95;81.44
37648;BME280;23490;53.656;10.076;2023-04-19T05:31:03;99459.31;;;-145.95;80.87
37648;BME280;23490;53.656;10.076;2023-04-19T05:33:28;99442.78;;;-145.95;80.37
37648;BME280;23490;53.656;10.076;2023-04-19T05:35:54;99442.78;;;-145.95;80.41
37648;BME280;23490;53.656;10.076;2023-04-19T05:38:22;99413.88;;;-145.95;79.35
37648;BME280;23490;53.656;10.076;2023-04-19T05:40:47;99420.06;;;-145.95;78.90
37648;BME280;23490;53.656;10.076;2023-04-19T05:43:13;99438.66;;;-145.95;78.39
37648;BME280;23490;53.656;10.076;2023-04-19T05:45:38;99422.13;;;-145.95;77.63
37648;BME280;23490;53.656;10.076;2023-04-19T05:48:04;99389.09;;;-145.95;76.19
37648;BME280;23490;53.656;10.076;2023-04-19T05:50:30;99430.41;;;-145.95;76.26
37648;BME280;23490;53.656;10.076;2023-04-19T05:52:55;99360.19;;;-145.95;76.24
37648;BME280;23490;53.656;10.076;2023-04-19T05:55:21;99407.69;;;-145.95;75.80
37648;BME280;23490;53.656;10.076;2023-04-19T05:57:47;99347.78;;;-145.95;75.98
37648;BME280;23490;53.656;10.076;2023-04-19T06:00:12;99372.56;;;-145.95;74.54
37648;BME280;23490;53.656;10.076;2023-04-19T06:02:38;99405.63;;;-145.95;75.31
37648;BME280;23490;53.656;10.076;2023-04-19T06:05:03;99372.56;;;-145.95;73.27
37648;BME280;23490;53.656;10.076;2023-04-19T06:07:29;99323.00;;;-145.95;74.63
37648;BME280;23490;53.656;10.076;2023-04-19T06:09:56;99356.06;;;-145.95;71.76
37648;BME280;23490;53.656;10.076;2023-04-19T06:12:22;99339.53;;;-145.95;72.52
37648;BME280;23490;53.656;10.076;2023-04-19T06:14:47;99314.75;;;-145.95;71.74
37648;BME280;23490;53.656;10.076;2023-04-19T06:17:12;99318.88;;;-145.95;70.75
37648;BME280;23490;53.656;10.076;2023-04-19T06:19:40;99281.72;;;-145.95;69.92
37648;BME280;23490;53.656;10.076;2023-04-19T06:22:06;99287.91;;;-145.95;69.28
37648;BME280;23490;53.656;10.076;2023-04-19T06:24:31;99236.28;;;-145.95;68.07
37648;BME280;23490;53.656;10.076;2023-04-19T06:26:57;99248.66;;;-145.95;67.80
37648;BME280;23490;53.656;10.076;2023-04-19T06:29:22;99238.34;;;-145.95;67.17
37648;BME280;23490;53.656;10.076;2023-04-19T06:31:48;99223.88;;;-145.95;66.66
37648;BME280;23490;53.656;10.076;2023-04-19T06:34:13;99215.63;;;-145.95;64.14
37648;BME280;23490;53.656;10.076;2023-04-19T06:36:39;99186.72;;;-145.95;62.53
37648;BME280;23490;53.656;10.076;2023-04-19T06:39:04;99228.00;;;-145.95;61.57
37648;BME280;23490;53.656;10.076;2023-04-19T06:41:30;99120.63;;;-145.95;61.03
37648;BME280;23490;53.656;10.076;2023-04-19T06:43:56;99161.94;;;-145.95;61.31
37648;BME280;23490;53.656;10.076;2023-04-19T06:46:21;99124.75;;;-145.95;59.12
37648;BME280;23490;53.656;10.076;2023-04-19T06:48:47;99145.41;;;-145.95;58.51
37648;BME280;23490;53.656;10.076;2023-04-19T06:51:12;99104.09;;;-145.95;57.87
37648;BME280;23490;53.656;10.076;2023-04-19T06:53:37;99066.94;;;-145.95;57.85
37648;BME280;23490;53.656;10.076;2023-04-19T06:56:03;99050.41;;;-145.95;56.25
37648;BME280;23490;53.656;10.076;2023-04-19T06:58:29;99035.97;;;-145.95;57.46
37648;BME280;23490;53.656;10.076;2023-04-19T07:00:58;99027.69;;;-145.95;55.97
37648;BME280;23490;53.656;10.076;2023-04-19T07:03:24;99027.69;;;-145.95;56.29
37648;BME280;23490;53.656;10.076;2023-04-19T07:05:50;99005.00;;;-145.95;56.51
37648;BME280;23490;53.656;10.076;2023-04-19T07:08:17;98996.72;;;-145.95;54.96
37648;BME280;23490;53.656;10.076;2023-04-19T07:10:42;98990.53;;;-145.95;54.45
37648;BME280;23490;53.656;10.076;2023-04-19T07:13:11;98984.34;;;-145.95;53.88
37648;BME280;23490;53.656;10.076;2023-04-19T07:15:37;98978.16;;;-145.95;54.57
37648;BME280;23490;53.656;10.076;2023-04-19T07:18:02;98938.91;;;-145.95;51.96
37648;BME280;23490;53.656;10.076;2023-04-19T07:20:28;98943.03;;;-145.95;52.57
37648;BME280;23490;53.656;10.076;2023-04-19T07:22:58;98930.66;;;-145.95;52.28
37648;BME280;23490;53.656;10.076;2023-04-19T07:25:24;98918.25;;;-145.95;52.07
37648;BME280;23490;53.656;10.076;2023-04-19T07:27:51;98905.88;;;-145.95;51.74
37648;BME280;23490;53.656;10.076;2023-04-19T07:30:17;98889.34;;;-145.95;51.54
37648;BME280;23490;53.656;10.076;2023-04-19T07:32:45;98881.09;;;-145.95;51.53
37648;BME280;23490;53.656;10.076;2023-04-19T07:35:12;98910.00;;;-145.95;50.68
37648;BME280;23490;53.656;10.076;2023-04-19T07:37:37;98856.31;;;-145.95;50.43
37648;BME280;23490;53.656;10.076;2023-04-19T07:40:04;98856.31;;;-145.95;49.50
37648;BME280;23490;53.656;10.076;2023-04-19T07:42:29;98846.00;;;-145.95;49.44
37648;BME280;23490;53.656;10.076;2023-04-19T07:44:55;98827.41;;;-145.95;48.25
37648;BME280;23490;53.656;10.076;2023-04-19T07:47:21;98781.97;;;-145.95;48.13
37648;BME280;23490;53.656;10.076;2023-04-19T07:49:54;98775.78;;;-145.95;47.80
37648;BME280;23490;53.656;10.076;2023-04-19T07:52:20;98761.34;;;-145.95;48.34
37648;BME280;23490;53.656;10.076;2023-04-19T07:54:46;98790.25;;;-145.95;48.94
37648;BME280;23490;53.656;10.076;2023-04-19T07:57:12;98689.06;;;-145.95;47.39
37648;BME280;23490;53.656;10.076;2023-04-19T07:59:37;98703.53;;;-145.95;48.43
37648;BME280;23490;53.656;10.076;2023-04-19T08:02:02;98691.13;;;-145.95;46.33
37648;BME280;23490;53.656;10.076;2023-04-19T08:04:27;98703.53;;;-145.95;46.52
37648;BME280;23490;53.656;10.076;2023-04-19T08:06:53;98699.38;;;-145.95;45.48
37648;BME280;23490;53.656;10.076;2023-04-19T08:09:19;98658.09;;;-145.95;44.81
37648;BME280;23490;53.656;10.076;2023-04-19T08:11:44;98682.88;;;-145.95;44.87
37648;BME280;23490;53.656;10.076;2023-04-19T08:14:09;98678.75;;;-145.95;45.70
37648;BME280;23490;53.656;10.076;2023-04-19T08:16:35;98567.25;;;-145.95;44.81
37648;BME280;23490;53.656;10.076;2023-04-19T08:19:00;98662.22;;;-145.95;45.60
37648;BME280;23490;53.656;10.076;2023-04-19T08:21:25;98583.75;;;-145.95;45.14
37648;BME280;23490;53.656;10.076;2023-04-19T08:23:51;98575.50;;;-145.95;44.02
37648;BME280;23490;53.656;10.076;2023-04-19T08:26:16;98542.47;;;-145.95;45.26
37648;BME280;23490;53.656;10.076;2023-04-19T08:28:42;98596.16;;;-145.95;44.21
37648;BME280;23490;53.656;10.076;2023-04-19T08:31:07;98546.59;;;-145.95;44.81
37648;BME280;23490;53.656;10.076;2023-04-19T08:33:33;98484.66;;;-145.95;44.30
37648;BME280;23490;53.656;10.076;2023-04-19T08:36:00;98468.13;;;-145.95;41.90
37648;BME280;23490;53.656;10.076;2023-04-19T08:38:26;98435.09;;;-145.95;43.13
37648;BME280;23490;53.656;10.076;2023-04-19T08:40:52;98480.53;;;-145.95;42.18
37648;BME280;23490;53.656;10.076;2023-04-19T08:43:20;98443.38;;;-145.95;42.00
37648;BME280;23490;53.656;10.076;2023-04-19T08:45:49;98340.13;;;-145.95;43.42
37648;BME280;23490;53.656;10.076;2023-04-19T08:48:16;98352.53;;;-145.95;42.17
37648;BME280;23490;53.656;10.076;2023-04-19T08:50:42;98360.78;;;-145.95;42.08
37648;BME280;23490;53.656;10.076;2023-04-19T08:53:09;98245.16;;;-145.95;41.05
37648;BME280;23490;53.656;10.076;2023-04-19T08:55:37;98267.88;;;-145.95;39.17
37648;BME280;23490;53.656;10.076;2023-04-19T08:58:03;98286.47;;;-145.95;39.53
37648;BME280;23490;53.656;10.076;2023-04-19T09:00:38;98245.16;;;-145.95;39.78
37648;BME280;23490;53.656;10.076;2023-04-19T09:03:06;98294.72;;;-145.95;38.94
37648;BME280;23490;53.656;10.076;2023-04-19T09:05:33;98280.25;;;-145.95;39.05
37648;BME280;23490;53.656;10.076;2023-04-19T09:08:23;98220.38;;;-145.95;38.65
37648;BME280;23490;53.656;10.076;2023-04-19T09:11:01;98208.00;;;-145.95;39.52
37648;BME280;23490;53.656;10.076;2023-04-19T09:13:27;98249.28;;;-145.95;38.93
37648;BME280;23490;53.656;10.076;2023-04-19T09:15:53;98212.13;;;-145.95;37.95
37648;BME280;23490;53.656;10.076;2023-04-19T09:18:21;97980.91;;;-145.95;37.99
37648;BME280;23490;53.656;10.076;2023-04-19T09:20:47;98038.72;;;-145.95;37.27
37648;BME280;23490;53.656;10.076;2023-04-19T09:23:17;98086.19;;;-145.95;38.38
37648;BME280;23490;53.656;10.076;2023-04-19T09:25:53;98026.34;;;-145.95;37.38
37648;BME280;23490;53.656;10.076;2023-04-19T09:28:19;98075.88;;;-145.95;37.36
37648;BME280;23490;53.656;10.076;2023-04-19T09:30:45;98137.81;;;-145.95;36.98
37648;BME280;23490;53.656;10.076;2023-04-19T09:33:11;98024.28;;;-145.95;37.06
37648;BME280;23490;53.656;10.076;2023-04-19T09:35:50;98001.56;;;-145.95;36.96
37648;BME280;23490;53.656;10.076;2023-04-19T09:38:15;97980.91;;;-145.95;34.75
37648;BME280;23490;53.656;10.076;2023-04-19T09:40:41;97985.03;;;-145.95;33.83
37648;BME280;23490;53.656;10.076;2023-04-19T09:43:07;98042.84;;;-145.95;33.84
37648;BME280;23490;53.656;10.076;2023-04-19T09:45:43;97906.59;;;-145.95;33.46
37648;BME280;23490;53.656;10.076;2023-04-19T09:48:10;97956.16;;;-145.95;32.99
37648;BME280;23490;53.656;10.076;2023-04-19T09:50:36;97906.59;;;-145.95;33.19
37648;BME280;23490;53.656;10.076;2023-04-19T09:53:15;97828.16;;;-145.95;33.30
37648;BME280;23490;53.656;10.076;2023-04-19T09:55:41;97836.41;;;-145.95;31.58
37648;BME280;23490;53.656;10.076;2023-04-19T09:58:07;97819.91;;;-145.95;30.23
37648;BME280;23490;53.656;10.076;2023-04-19T10:00:33;97834.34;;;-145.95;31.37
37648;BME280;23490;53.656;10.076;2023-04-19T10:03:00;97784.81;;;-145.95;31.26
37648;BME280;23490;53.656;10.076;2023-04-19T10:05:26;97910.72;;;-145.95;31.38
37648;BME280;23490;53.656;10.076;2023-04-19T10:07:52;97640.31;;;-145.95;30.54
37648;BME280;23490;53.656;10.076;2023-04-19T10:10:20;97776.56;;;-145.95;29.68
37648;BME280;23490;53.656;10.076;2023-04-19T10:12:48;97832.28;;;-145.95;29.90
37648;BME280;23490;53.656;10.076;2023-04-19T10:15:15;97776.56;;;-145.95;30.41
37648;BME280;23490;53.656;10.076;2023-04-19T10:17:41;97757.97;;;-145.95;30.18
37648;BME280;23490;53.656;10.076;2023-04-19T10:20:10;97784.81;;;-145.95;29.71
37648;BME280;23490;53.656;10.076;2023-04-19T10:22:37;97650.63;;;-145.95;28.81
37648;BME280;23490;53.656;10.076;2023-04-19T10:25:15;97716.69;;;-145.95;28.41
37648;BME280;23490;53.656;10.076;2023-04-19T10:27:42;97733.22;;;-145.95;27.82
37648;BME280;23490;53.656;10.076;2023-04-19T10:30:19;97681.59;;;-145.95;28.64
37648;BME280;23490;53.656;10.076;2023-04-19T10:32:50;97630.00;;;-145.95;27.61
37648;BME280;23490;53.656;10.076;2023-04-19T10:35:18;97813.72;;;-145.95;29.18
37648;BME280;23490;53.656;10.076;2023-04-19T10:43:16;97809.59;;;-145.95;29.48
37648;BME280;23490;53.656;10.076;2023-04-19T10:45:42;97778.63;;;-145.95;28.60
37648;BME280;23490;53.656;10.076;2023-04-19T10:56:15;97708.44;;;-145.95;28.69
37648;BME280;23490;53.656;10.076;2023-04-19T11:01:49;97592.84;;;-145.95;27.42
37648;BME280;23490;53.656;10.076;2023-04-19T11:04:19;97824.03;;;-145.95;26.99
37648;BME280;23490;53.656;10.076;2023-04-19T11:09:39;97784.81;;;-145.95;27.33
37648;BME280;23490;53.656;10.076;2023-04-19T11:12:09;97601.09;;;-145.95;26.59
37648;BME280;23490;53.656;10.076;2023-04-19T11:14:40;97535.03;;;-145.95;27.05
37648;BME280;23490;53.656;10.076;2023-04-19T11:17:21;97580.47;;;-145.95;27.42
37648;BME280;23490;53.656;10.076;2023-04-19T11:22:33;97592.84;;;-145.95;26.26
37648;BME280;23490;53.656;10.076;2023-04-19T11:25:08;97675.41;;;-145.95;27.72
37648;BME280;23490;53.656;10.076;2023-04-19T11:27:34;97757.97;;;-145.95;27.89
37648;BME280;23490;53.656;10.076;2023-04-19T11:30:02;97506.16;;;-145.95;27.70
37648;BME280;23490;53.656;10.076;2023-04-19T11:32:30;97421.53;;;-145.95;28.38
37648;BME280;23490;53.656;10.076;2023-04-19T11:34:55;97493.75;;;-145.95;27.09
37648;BME280;23490;53.656;10.076;2023-04-19T11:37:21;97555.69;;;-145.95;27.37
37648;BME280;23490;53.656;10.076;2023-04-19T11:39:47;97650.63;;;-145.95;26.85
37648;BME280;23490;53.656;10.076;2023-04-19T11:42:17;97530.91;;;-145.95;27.42
37648;BME280;23490;53.656;10.076;2023-04-19T11:44:50;97532.97;;;-145.95;27.80
37648;BME280;23490;53.656;10.076;2023-04-19T11:47:16;97654.75;;;-145.95;27.06
37648;BME280;23490;53.656;10.076;2023-04-19T11:49:41;97669.22;;;-145.95;27.24
37648;BME280;23490;53.656;10.076;2023-04-19T11:52:07;97687.78;;;-145.95;27.50
37648;BME280;23490;53.656;10.076;2023-04-19T11:54:32;97733.22;;;-145.95;27.37
37648;BME280;23490;53.656;10.076;2023-04-19T11:57:05;97638.25;;;-145.95;27.06
37648;BME280;23490;53.656;10.076;2023-04-19T11:59:33;97770.34;;;-145.95;27.76
37648;BME280;23490;53.656;10.076;2023-04-19T12:02:05;97572.19;;;-145.95;26.54
37648;BME280;23490;53.656;10.076;2023-04-19T12:04:30;97483.44;;;-145.95;26.65
37648;BME280;23490;53.656;10.076;2023-04-19T12:06:57;97423.59;;;-145.95;26.31
37648;BME280;23490;53.656;10.076;2023-04-19T12:09:24;97506.16;;;-145.95;26.59
37648;BME280;23490;53.656;10.076;2023-04-19T12:11:49;97134.63;;;-145.95;25.98
37648;BME280;23490;53.656;10.076;2023-04-19T12:14:16;97318.31;;;-145.95;25.86
37648;BME280;23490;53.656;10.076;2023-04-19T12:17:05;97481.38;;;-145.95;27.08
37648;BME280;23490;53.656;10.076;2023-04-19T12:19:45;97497.88;;;-145.95;27.42
37648;BME280;23490;53.656;10.076;2023-04-19T12:22:31;97409.13;;;-145.95;27.19
37648;BME280;23490;53.656;10.076;2023-04-19T12:24:58;97452.47;;;-145.95;28.11
37648;BME280;23490;53.656;10.076;2023-04-19T12:27:24;97442.16;;;-145.95;27.90
37648;BME280;23490;53.656;10.076;2023-04-19T12:29:50;97142.88;;;-145.95;28.05
37648;BME280;23490;53.656;10.076;2023-04-19T12:32:16;97266.72;;;-145.95;28.07
37648;BME280;23490;53.656;10.076;2023-04-19T12:34:42;97192.44;;;-145.95;27.45
37648;BME280;23490;53.656;10.076;2023-04-19T12:37:07;97285.31;;;-145.95;28.43
37648;BME280;23490;53.656;10.076;2023-04-19T12:39:32;97291.50;;;-145.95;28.53
37648;BME280;23490;53.656;10.076;2023-04-19T12:41:58;97365.78;;;-145.95;28.38
37648;BME280;23490;53.656;10.076;2023-04-19T12:44:23;97225.44;;;-145.95;28.53
37648;BME280;23490;53.656;10.076;2023-04-19T12:46:49;97120.19;;;-145.95;27.77
37648;BME280;23490;53.656;10.076;2023-04-19T12:49:17;97062.41;;;-145.95;27.42